sensor_id;sensor_type;location;lat;lon;timestamp;temperature;humidity
47626;DHT22;33342;45.574;9.252;2023-07-02T00:00:07;25.20;99.90
47626;DHT22;33342;45.574;9.252;2023-07-02T00:02:37;25.20;99.90
47626;DHT22;33342;45.574;9.252;2023-07-02T00:05:06;25.10;99.90
47626;DHT22;33342;45.574;9.252;2023-07-02T00:07:34;25.10;99.90
47626;DHT22;33342;45.574;9.252;2023-07-02T00:10:03;25.10;99.90
47626;DHT22;33342;45.574;9.252;2023-07-02T00:12:31;25.10;99.90
47626;DHT22;33342;45.574;9.252;2023-07-02T00:15:00;25.10;99.90
47626;DHT22;33342;45.574;9.252;2023-07-02T00:17:28;25.10;99.90
47626;DHT22;33342;45.574;9.252;2023-07-02T00:19:55;25.10;99.90
47626;DHT22;33342;45.574;9.252;2023-07-02T00:22:22;25.00;99.90
47626;DHT22;33342;45.574;9.252;2023-07-02T00:24:50;25.00;99.90
47626;DHT22;33342;45.574;9.252;2023-07-02T00:27:18;25.00;99.90
47626;DHT22;33342;45.574;9.252;2023-07-02T00:29:46;24.90;99.90
47626;DHT22;33342;45.574;9.252;2023-07-02T00:32:13;25.00;99.90
47626;DHT22;33342;45.574;9.252;2023-07-02T00:34:40;24.90;99.90
47626;DHT22;33342;45.574;9.252;2023-07-02T00:37:08;24.90;99.90
47626;DHT22;33342;45.574;9.252;2023-07-02T00:39:35;25.00;99.90
47626;DHT22;33342;45.574;9.252;2023-07-02T00:42:02;24.90;99.90
47626;DHT22;33342;45.574;9.252;2023-07-02T00:44:30;24.90;99.90
47626;DHT22;33342;45.574;9.252;2023-07-02T00:46:57;24.90;99.90
47626;DHT22;33342;45.574;9.252;2023-07-02T00:49:25;24.90;99.90
47626;DHT22;33342;45.574;9.252;2023-07-02T00:51:53;24.90;99.90
47626;DHT22;33342;45.574;9.252;2023-07-02T00:54:20;24.80;99.90
47626;DHT22;33342;45.574;9.252;2023-07-02T00:56:47;24.80;99.90
47626;DHT22;33342;45.574;9.252;2023-07-02T00:59:15;24.80;99.90
47626;DHT22;33342;45.574;9.252;2023-07-02T01:01:42;24.80;99.90
47626;DHT22;33342;45.574;9.252;2023-07-02T01:04:09;24.80;99.90
47626;DHT22;33342;45.574;9.252;2023-07-02T01:06:39;24.80;99.90
47626;DHT22;33342;45.574;9.252;2023-07-02T01:09:08;24.80;99.90
47626;DHT22;33342;45.574;9.252;2023-07-02T01:11:44;24.80;99.90
47626;DHT22;33342;45.574;9.252;2023-07-02T01:14:30;24.80;99.90
47626;DHT22;33342;45.574;9.252;2023-07-02T01:16:59;24.70;99.90
47626;DHT22;33342;45.574;9.252;2023-07-02T01:22:08;24.70;99.90
47626;DHT22;33342;45.574;9.252;2023-07-02T01:24:36;24.60;99.90
47626;DHT22;33342;45.574;9.252;2023-07-02T01:27:04;24.60;99.90
47626;DHT22;33342;45.574;9.252;2023-07-02T01:29:31;24.60;99.90
47626;DHT22;33342;45.574;9.252;2023-07-02T01:31:58;24.60;99.90
47626;DHT22;33342;45.574;9.252;2023-07-02T01:34:25;24.60;99.90
47626;DHT22;33342;45.574;9.252;2023-07-02T01:36:53;24.60;99.90
47626;DHT22;33342;45.574;9.252;2023-07-02T01:39:20;24.60;99.90
47626;DHT22;33342;45.574;9.252;2023-07-02T01:41:55;24.50;99.90
47626;DHT22;33342;45.574;9.252;2023-07-02T01:44:22;24.50;99.90
47626;DHT22;33342;45.574;9.252;2023-07-02T01:46:49;24.40;99.90
47626;DHT22;33342;45.574;9.252;2023-07-02T01:49:18;24.40;99.90
47626;DHT22;33342;45.574;9.252;2023-07-02T01:51:49;24.30;99.90
47626;DHT22;33342;45.574;9.252;2023-07-02T01:54:17;24.30;99.90
47626;DHT22;33342;45.574;9.252;2023-07-02T01:56:44;24.20;99.90
47626;DHT22;33342;45.574;9.252;2023-07-02T01:59:11;24.20;99.90
47626;DHT22;33342;45.574;9.252;2023-07-02T02:01:39;24.20;99.90
47626;DHT22;33342;45.574;9.252;2023-07-02T02:04:10;24.20;99.90
47626;DHT22;33342;45.574;9.252;2023-07-02T02:06:38;24.20;99.90
47626;DHT22;33342;45.574;9.252;2023-07-02T02:09:07;24.20;99.90
47626;DHT22;33342;45.574;9.252;2023-07-02T02:11:41;24.20;99.90
47626;DHT22;33342;45.574;9.252;2023-07-02T02:14:08;24.10;99.90
47626;DHT22;33342;45.574;9.252;2023-07-02T02:16:36;24.10;99.90
47626;DHT22;33342;45.574;9.252;2023-07-02T02:19:04;24.10;99.90
47626;DHT22;33342;45.574;9.252;2023-07-02T02:21:32;24.00;99.90
47626;DHT22;33342;45.574;9.252;2023-07-02T02:23:59;24.10;99.90
47626;DHT22;33342;45.574;9.252;2023-07-02T02:26:26;24.00;99.90
47626;DHT22;33342;45.574;9.252;2023-07-02T02:28:54;24.10;99.90
47626;DHT22;33342;45.574;9.252;2023-07-02T02:31:21;24.00;99.90
47626;DHT22;33342;45.574;9.252;2023-07-02T02:33:48;24.00;99.90
47626;DHT22;33342;45.574;9.252;2023-07-02T02:36:17;23.90;99.90
47626;DHT22;33342;45.574;9.252;2023-07-02T02:38:44;23.90;99.90
47626;DHT22;33342;45.574;9.252;2023-07-02T02:41:12;23.90;99.90
47626;DHT22;33342;45.574;9.252;2023-07-02T02:43:45;23.90;99.90
47626;DHT22;33342;45.574;9.252;2023-07-02T02:46:20;23.90;99.90
47626;DHT22;33342;45.574;9.252;2023-07-02T02:48:52;23.90;99.90
47626;DHT22;33342;45.574;9.252;2023-07-02T02:51:19;23.80;99.90
47626;DHT22;33342;45.574;9.252;2023-07-02T02:53:46;23.80;99.90
47626;DHT22;33342;45.574;9.252;2023-07-02T02:56:13;23.80;99.90
47626;DHT22;33342;45.574;9.252;2023-07-02T02:58:41;23.80;99.90
47626;DHT22;33342;45.574;9.252;2023-07-02T03:01:08;23.70;99.90
47626;DHT22;33342;45.574;9.252;2023-07-02T03:03:40;23.70;99.90
47626;DHT22;33342;45.574;9.252;2023-07-02T03:06:14;23.70;99.90
47626;DHT22;33342;45.574;9.252;2023-07-02T03:08:42;23.80;99.90
47626;DHT22;33342;45.574;9.252;2023-07-02T03:11:09;23.70;99.90
47626;DHT22;33342;45.574;9.252;2023-07-02T03:13:36;23.60;99.90
47626;DHT22;33342;45.574;9.252;2023-07-02T03:16:04;23.60;99.90
47626;DHT22;33342;45.574;9.252;2023-07-02T03:18:31;23.60;99.90
47626;DHT22;33342;45.574;9.252;2023-07-02T03:20:59;23.60;99.90
47626;DHT22;33342;45.574;9.252;2023-07-02T03:23:26;23.50;99.90
47626;DHT22;33342;45.574;9.252;2023-07-02T03:25:53;23.50;99.90
47626;DHT22;33342;45.574;9.252;2023-07-02T03:28:21;23.50;99.90
47626;DHT22;33342;45.574;9.252;2023-07-02T03:30:48;23.50;99.90
47626;DHT22;33342;45.574;9.252;2023-07-02T03:33:15;23.50;99.90
47626;DHT22;33342;45.574;9.252;2023-07-02T03:35:42;23.50;99.90
47626;DHT22;33342;45.574;9.252;2023-07-02T03:38:10;23.50;99.90
47626;DHT22;33342;45.574;9.252;2023-07-02T03:40:37;23.50;99.90
47626;DHT22;33342;45.574;9.252;2023-07-02T03:43:04;23.50;99.90
47626;DHT22;33342;45.574;9.252;2023-07-02T03:45:32;23.50;99.90
47626;DHT22;33342;45.574;9.252;2023-07-02T03:47:59;23.50;99.90
47626;DHT22;33342;45.574;9.252;2023-07-02T03:50:26;23.50;99.90
47626;DHT22;33342;45.574;9.252;2023-07-02T03:52:53;23.50;99.90
47626;DHT22;33342;45.574;9.252;2023-07-02T03:55:20;23.50;99.90
47626;DHT22;33342;45.574;9.252;2023-07-02T03:57:48;23.50;99.90
47626;DHT22;33342;45.574;9.252;2023-07-02T04:00:15;23.50;99.90
47626;DHT22;33342;45.574;9.252;2023-07-02T04:02:42;23.50;99.90
47626;DHT22;33342;45.574;9.252;2023-07-02T04:05:09;23.60;99.90
47626;DHT22;33342;45.574;9.252;2023-07-02T04:07:37;23.60;99.90
47626;DHT22;33342;45.574;9.252;2023-07-02T04:10:04;23.50;99.90
47626;DHT22;33342;45.574;9.252;2023-07-02T04:12:31;23.60;99.90
47626;DHT22;33342;45.574;9.252;2023-07-02T04:14:58;23.60;99.90
47626;DHT22;33342;45.574;9.252;2023-07-02T04:17:26;23.60;99.90
47626;DHT22;33342;45.574;9.252;2023-07-02T04:19:54;23.60;99.90
47626;DHT22;33342;45.574;9.252;2023-07-02T04:22:22;23.60;99.90
47626;DHT22;33342;45.574;9.252;2023-07-02T04:24:49;23.60;99.90
47626;DHT22;33342;45.574;9.252;2023-07-02T04:27:18;23.60;99.90
47626;DHT22;33342;45.574;9.252;2023-07-02T04:30:06;23.60;99.90
47626;DHT22;33342;45.574;9.252;2023-07-02T04:32:35;23.70;99.90
47626;DHT22;33342;45.574;9.252;2023-07-02T04:35:03;23.80;99.90
47626;DHT22;33342;45.574;9.252;2023-07-02T04:37:30;23.80;99.90
47626;DHT22;33342;45.574;9.252;2023-07-02T04:39:57;23.80;99.90
47626;DHT22;33342;45.574;9.252;2023-07-02T04:42:24;23.80;99.90
47626;DHT22;33342;45.574;9.252;2023-07-02T04:44:54;23.80;99.90
47626;DHT22;33342;45.574;9.252;2023-07-02T04:47:22;23.90;99.90
47626;DHT22;33342;45.574;9.252;2023-07-02T04:49:49;23.90;99.90
47626;DHT22;33342;45.574;9.252;2023-07-02T04:52:16;23.90;99.90
47626;DHT22;33342;45.574;9.252;2023-07-02T04:54:44;23.90;99.90
47626;DHT22;33342;45.574;9.252;2023-07-02T04:57:11;23.90;99.90
47626;DHT22;33342;45.574;9.252;2023-07-02T04:59:41;23.90;99.90
47626;DHT22;33342;45.574;9.252;2023-07-02T05:02:09;23.90;99.90
47626;DHT22;33342;45.574;9.252;2023-07-02T05:04:36;23.90;99.90
47626;DHT22;33342;45.574;9.252;2023-07-02T05:07:06;23.90;99.90
47626;DHT22;33342;45.574;9.252;2023-07-02T05:09:34;24.00;99.90
47626;DHT22;33342;45.574;9.252;2023-07-02T05:12:01;23.90;99.90
47626;DHT22;33342;45.574;9.252;2023-07-02T05:14:28;24.00;99.90
47626;DHT22;33342;45.574;9.252;2023-07-02T05:16:55;24.00;99.90
47626;DHT22;33342;45.574;9.252;2023-07-02T05:19:22;24.00;99.90
47626;DHT22;33342;45.574;9.252;2023-07-02T05:21:49;24.00;99.90
47626;DHT22;33342;45.574;9.252;2023-07-02T05:24:16;24.00;99.90
47626;DHT22;33342;45.574;9.252;2023-07-02T05:26:43;24.10;99.90
47626;DHT22;33342;45.574;9.252;2023-07-02T05:29:10;24.10;99.90
47626;DHT22;33342;45.574;9.252;2023-07-02T05:31:37;24.10;99.90
47626;DHT22;33342;45.574;9.252;2023-07-02T05:34:05;24.10;99.90
47626;DHT22;33342;45.574;9.252;2023-07-02T05:36:32;24.10;99.90
47626;DHT22;33342;45.574;9.252;2023-07-02T05:39:01;24.10;99.90
47626;DHT22;33342;45.574;9.252;2023-07-02T05:41:28;24.20;99.90
47626;DHT22;33342;45.574;9.252;2023-07-02T05:43:57;24.10;99.90
47626;DHT22;33342;45.574;9.252;2023-07-02T05:46:25;24.20;99.90
47626;DHT22;33342;45.574;9.252;2023-07-02T05:48:52;24.20;99.90
47626;DHT22;33342;45.574;9.252;2023-07-02T05:51:26;24.20;99.90
47626;DHT22;33342;45.574;9.252;2023-07-02T05:53:53;24.20;99.90
47626;DHT22;33342;45.574;9.252;2023-07-02T05:56:20;24.30;99.90
47626;DHT22;33342;45.574;9.252;2023-07-02T05:58:48;24.20;99.90
47626;DHT22;33342;45.574;9.252;2023-07-02T06:01:16;24.30;99.90
47626;DHT22;33342;45.574;9.252;2023-07-02T06:03:44;24.30;99.90
47626;DHT22;33342;45.574;9.252;2023-07-02T06:06:12;24.30;99.90
47626;DHT22;33342;45.574;9.252;2023-07-02T06:08:39;24.30;99.90
47626;DHT22;33342;45.574;9.252;2023-07-02T06:11:07;24.30;99.90
47626;DHT22;33342;45.574;9.252;2023-07-02T06:13:34;24.40;99.90
47626;DHT22;33342;45.574;9.252;2023-07-02T06:16:01;24.40;99.90
47626;DHT22;33342;45.574;9.252;2023-07-02T06:18:28;24.40;99.90
47626;DHT22;33342;45.574;9.252;2023-07-02T06:20:56;24.40;99.90
47626;DHT22;33342;45.574;9.252;2023-07-02T06:23:23;24.40;99.90
47626;DHT22;33342;45.574;9.252;2023-07-02T06:25:50;24.50;99.90
47626;DHT22;33342;45.574;9.252;2023-07-02T06:28:25;24.50;99.90
47626;DHT22;33342;45.574;9.252;2023-07-02T06:30:53;24.50;99.90
47626;DHT22;33342;45.574;9.252;2023-07-02T06:33:20;24.50;99.90
47626;DHT22;33342;45.574;9.252;2023-07-02T06:35:48;24.50;99.90
47626;DHT22;33342;45.574;9.252;2023-07-02T06:38:16;24.60;99.90
47626;DHT22;33342;45.574;9.252;2023-07-02T06:40:43;24.60;99.90
47626;DHT22;33342;45.574;9.252;2023-07-02T06:43:10;24.60;99.90
47626;DHT22;33342;45.574;9.252;2023-07-02T06:45:37;24.60;99.90
47626;DHT22;33342;45.574;9.252;2023-07-02T06:48:04;24.60;99.90
47626;DHT22;33342;45.574;9.252;2023-07-02T06:50:32;24.60;99.90
47626;DHT22;33342;45.574;9.252;2023-07-02T06:52:59;24.70;99.90
47626;DHT22;33342;45.574;9.252;2023-07-02T06:55:26;24.70;99.90
47626;DHT22;33342;45.574;9.252;2023-07-02T06:57:53;24.70;99.90
47626;DHT22;33342;45.574;9.252;2023-07-02T07:00:21;24.70;99.90
47626;DHT22;33342;45.574;9.252;2023-07-02T07:02:48;24.80;99.90
47626;DHT22;33342;45.574;9.252;2023-07-02T07:05:15;24.70;99.90
47626;DHT22;33342;45.574;9.252;2023-07-02T07:07:42;24.80;99.90
47626;DHT22;33342;45.574;9.252;2023-07-02T07:10:09;24.80;99.90
47626;DHT22;33342;45.574;9.252;2023-07-02T07:12:36;24.80;99.90
47626;DHT22;33342;45.574;9.252;2023-07-02T07:15:04;24.80;99.90
47626;DHT22;33342;45.574;9.252;2023-07-02T07:17:32;24.90;99.90
47626;DHT22;33342;45.574;9.252;2023-07-02T07:19:59;24.90;99.90
47626;DHT22;33342;45.574;9.252;2023-07-02T07:22:26;24.90;99.90
47626;DHT22;33342;45.574;9.252;2023-07-02T07:24:53;24.90;99.90
47626;DHT22;33342;45.574;9.252;2023-07-02T07:27:20;25.00;99.90
47626;DHT22;33342;45.574;9.252;2023-07-02T07:29:47;25.00;99.90
47626;DHT22;33342;45.574;9.252;2023-07-02T07:32:15;25.00;99.90
47626;DHT22;33342;45.574;9.252;2023-07-02T07:34:43;25.10;99.90
47626;DHT22;33342;45.574;9.252;2023-07-02T07:37:10;25.10;99.90
47626;DHT22;33342;45.574;9.252;2023-07-02T07:39:37;25.10;99.90
47626;DHT22;33342;45.574;9.252;2023-07-02T07:42:05;25.10;99.90
47626;DHT22;33342;45.574;9.252;2023-07-02T07:44:32;25.10;99.90
47626;DHT22;33342;45.574;9.252;2023-07-02T07:46:59;25.10;99.90
47626;DHT22;33342;45.574;9.252;2023-07-02T07:49:26;25.10;99.90
47626;DHT22;33342;45.574;9.252;2023-07-02T07:51:54;25.10;99.90
47626;DHT22;33342;45.574;9.252;2023-07-02T07:54:21;25.10;99.90
47626;DHT22;33342;45.574;9.252;2023-07-02T07:56:49;25.20;99.90
47626;DHT22;33342;45.574;9.252;2023-07-02T07:59:16;25.20;99.90
47626;DHT22;33342;45.574;9.252;2023-07-02T08:01:43;25.10;99.90
47626;DHT22;33342;45.574;9.252;2023-07-02T08:04:10;25.10;99.90
47626;DHT22;33342;45.574;9.252;2023-07-02T08:06:37;25.10;99.90
47626;DHT22;33342;45.574;9.252;2023-07-02T08:09:04;25.10;99.90
47626;DHT22;33342;45.574;9.252;2023-07-02T08:11:32;25.20;99.90
47626;DHT22;33342;45.574;9.252;2023-07-02T08:13:59;25.20;99.90
47626;DHT22;33342;45.574;9.252;2023-07-02T08:16:26;25.20;99.90
47626;DHT22;33342;45.574;9.252;2023-07-02T08:18:53;25.20;99.90
47626;DHT22;33342;45.574;9.252;2023-07-02T08:21:20;25.30;99.90
47626;DHT22;33342;45.574;9.252;2023-07-02T08:23:48;25.30;99.90
47626;DHT22;33342;45.574;9.252;2023-07-02T08:26:15;25.30;99.90
47626;DHT22;33342;45.574;9.252;2023-07-02T08:28:42;25.40;99.90
47626;DHT22;33342;45.574;9.252;2023-07-02T08:31:09;25.40;99.90
47626;DHT22;33342;45.574;9.252;2023-07-02T08:33:36;25.50;99.90
47626;DHT22;33342;45.574;9.252;2023-07-02T08:36:03;25.50;99.90
47626;DHT22;33342;45.574;9.252;2023-07-02T08:38:31;25.50;99.90
47626;DHT22;33342;45.574;9.252;2023-07-02T08:40:58;25.60;99.90
47626;DHT22;33342;45.574;9.252;2023-07-02T08:43:26;25.60;99.90
47626;DHT22;33342;45.574;9.252;2023-07-02T08:45:54;25.60;99.90
47626;DHT22;33342;45.574;9.252;2023-07-02T08:48:21;25.60;99.90
47626;DHT22;33342;45.574;9.252;2023-07-02T08:50:51;25.60;99.90
47626;DHT22;33342;45.574;9.252;2023-07-02T08:53:19;25.70;99.90
47626;DHT22;33342;45.574;9.252;2023-07-02T08:55:46;25.70;99.90
47626;DHT22;33342;45.574;9.252;2023-07-02T08:58:14;25.70;99.90
47626;DHT22;33342;45.574;9.252;2023-07-02T09:01:05;25.70;99.90
47626;DHT22;33342;45.574;9.252;2023-07-02T09:03:36;25.70;99.90
47626;DHT22;33342;45.574;9.252;2023-07-02T09:06:08;25.80;99.90
47626;DHT22;33342;45.574;9.252;2023-07-02T09:08:36;25.80;99.90
47626;DHT22;33342;45.574;9.252;2023-07-02T09:11:11;25.90;99.90
47626;DHT22;33342;45.574;9.252;2023-07-02T09:16:23;26.00;99.90
47626;DHT22;33342;45.574;9.252;2023-07-02T09:19:04;26.00;99.90
47626;DHT22;33342;45.574;9.252;2023-07-02T09:21:45;26.10;99.90
47626;DHT22;33342;45.574;9.252;2023-07-02T09:26:54;26.10;99.90
47626;DHT22;33342;45.574;9.252;2023-07-02T09:29:26;26.10;99.90
47626;DHT22;33342;45.574;9.252;2023-07-02T09:32:05;26.10;99.90
47626;DHT22;33342;45.574;9.252;2023-07-02T09:34:38;26.10;99.90
47626;DHT22;33342;45.574;9.252;2023-07-02T09:37:07;26.20;99.90
47626;DHT22;33342;45.574;9.252;2023-07-02T09:39:35;26.20;99.90
47626;DHT22;33342;45.574;9.252;2023-07-02T09:42:06;26.20;99.90
47626;DHT22;33342;45.574;9.252;2023-07-02T09:44:34;26.20;99.90
47626;DHT22;33342;45.574;9.252;2023-07-02T09:47:06;26.20;99.90
47626;DHT22;33342;45.574;9.252;2023-07-02T09:49:37;26.30;99.90
47626;DHT22;33342;45.574;9.252;2023-07-02T09:52:11;26.30;99.90
47626;DHT22;33342;45.574;9.252;2023-07-02T09:54:38;26.30;99.90
47626;DHT22;33342;45.574;9.252;2023-07-02T09:57:06;26.30;99.90
47626;DHT22;33342;45.574;9.252;2023-07-02T09:59:34;26.30;99.90
47626;DHT22;33342;45.574;9.252;2023-07-02T10:02:01;26.30;99.90
47626;DHT22;33342;45.574;9.252;2023-07-02T10:04:42;26.30;99.90
47626;DHT22;33342;45.574;9.252;2023-07-02T10:07:11;26.40;99.90
47626;DHT22;33342;45.574;9.252;2023-07-02T10:09:39;26.40;99.90
47626;DHT22;33342;45.574;9.252;2023-07-02T10:12:16;26.40;99.90
47626;DHT22;33342;45.574;9.252;2023-07-02T10:14:44;26.40;99.90
47626;DHT22;33342;45.574;9.252;2023-07-02T10:17:27;26.40;99.90
47626;DHT22;33342;45.574;9.252;2023-07-02T10:20:03;26.50;99.90
47626;DHT22;33342;45.574;9.252;2023-07-02T10:22:48;26.50;99.90
47626;DHT22;33342;45.574;9.252;2023-07-02T10:25:34;26.60;99.90
47626;DHT22;33342;45.574;9.252;2023-07-02T10:28:33;26.60;99.90
47626;DHT22;33342;45.574;9.252;2023-07-02T10:31:00;26.70;99.90
47626;DHT22;33342;45.574;9.252;2023-07-02T10:33:27;26.70;99.90
47626;DHT22;33342;45.574;9.252;2023-07-02T10:35:54;26.80;99.90
47626;DHT22;33342;45.574;9.252;2023-07-02T10:38:23;26.80;99.90
47626;DHT22;33342;45.574;9.252;2023-07-02T10:40:55;26.90;99.90
47626;DHT22;33342;45.574;9.252;2023-07-02T10:43:31;26.90;99.90
47626;DHT22;33342;45.574;9.252;2023-07-02T10:46:00;26.90;99.90
47626;DHT22;33342;45.574;9.252;2023-07-02T10:48:28;26.90;99.90
47626;DHT22;33342;45.574;9.252;2023-07-02T10:50:56;26.90;99.90
47626;DHT22;33342;45.574;9.252;2023-07-02T10:53:23;26.90;99.90
47626;DHT22;33342;45.574;9.252;2023-07-02T10:55:54;26.90;99.90
47626;DHT22;33342;45.574;9.252;2023-07-02T10:58:24;27.00;99.90
47626;DHT22;33342;45.574;9.252;2023-07-02T11:00:51;27.00;99.90
47626;DHT22;33342;45.574;9.252;2023-07-02T11:03:26;27.00;99.90
47626;DHT22;33342;45.574;9.252;2023-07-02T11:05:54;27.00;99.90
47626;DHT22;33342;45.574;9.252;2023-07-02T11:08:22;27.10;99.90
47626;DHT22;33342;45.574;9.252;2023-07-02T11:10:50;27.10;99.90
47626;DHT22;33342;45.574;9.252;2023-07-02T11:13:19;27.10;99.90
47626;DHT22;33342;45.574;9.252;2023-07-02T11:15:46;27.20;99.90
47626;DHT22;33342;45.574;9.252;2023-07-02T11:18:16;27.30;99.90
47626;DHT22;33342;45.574;9.252;2023-07-02T11:20:46;27.30;99.90
47626;DHT22;33342;45.574;9.252;2023-07-02T11:23:21;27.30;99.90
47626;DHT22;33342;45.574;9.252;2023-07-02T11:25:58;27.30;99.90
47626;DHT22;33342;45.574;9.252;2023-07-02T11:28:27;27.30;99.90
47626;DHT22;33342;45.574;9.252;2023-07-02T11:30:54;27.30;99.90
47626;DHT22;33342;45.574;9.252;2023-07-02T11:33:39;27.30;99.90
47626;DHT22;33342;45.574;9.252;2023-07-02T11:36:07;27.30;99.90
47626;DHT22;33342;45.574;9.252;2023-07-02T11:38:36;27.40;99.90
47626;DHT22;33342;45.574;9.252;2023-07-02T11:41:04;27.40;99.90
47626;DHT22;33342;45.574;9.252;2023-07-02T11:43:32;27.40;99.90
47626;DHT22;33342;45.574;9.252;2023-07-02T11:45:59;27.40;99.90
47626;DHT22;33342;45.574;9.252;2023-07-02T11:48:26;27.40;99.90
47626;DHT22;33342;45.574;9.252;2023-07-02T11:50:53;27.40;99.90
47626;DHT22;33342;45.574;9.252;2023-07-02T11:53:20;27.40;99.90
47626;DHT22;33342;45.574;9.252;2023-07-02T11:55:47;27.40;99.90
47626;DHT22;33342;45.574;9.252;2023-07-02T11:58:15;27.40;99.90
47626;DHT22;33342;45.574;9.252;2023-07-02T12:00:42;27.50;99.90
47626;DHT22;33342;45.574;9.252;2023-07-02T12:03:10;27.50;99.90
47626;DHT22;33342;45.574;9.252;2023-07-02T12:05:37;27.60;99.90
47626;DHT22;33342;45.574;9.252;2023-07-02T12:08:04;27.70;99.90
47626;DHT22;33342;45.574;9.252;2023-07-02T12:10:31;27.70;99.90
47626;DHT22;33342;45.574;9.252;2023-07-02T12:12:59;27.80;99.90
47626;DHT22;33342;45.574;9.252;2023-07-02T12:15:26;27.90;99.90
47626;DHT22;33342;45.574;9.252;2023-07-02T12:17:53;27.90;99.90
47626;DHT22;33342;45.574;9.252;2023-07-02T12:20:21;27.90;99.90
47626;DHT22;33342;45.574;9.252;2023-07-02T12:22:48;27.90;99.90
47626;DHT22;33342;45.574;9.252;2023-07-02T12:25:15;28.00;99.90
47626;DHT22;33342;45.574;9.252;2023-07-02T12:27:43;28.10;99.90
47626;DHT22;33342;45.574;9.252;2023-07-02T12:30:10;28.10;99.90
47626;DHT22;33342;45.574;9.252;2023-07-02T12:32:40;28.10;99.90
47626;DHT22;33342;45.574;9.252;2023-07-02T12:35:07;28.10;99.90
47626;DHT22;33342;45.574;9.252;2023-07-02T12:37:35;28.20;99.90
47626;DHT22;33342;45.574;9.252;2023-07-02T12:40:02;28.10;99.90
47626;DHT22;33342;45.574;9.252;2023-07-02T12:42:30;28.10;99.90
47626;DHT22;33342;45.574;9.252;2023-07-02T12:44:57;28.20;99.90
47626;DHT22;33342;45.574;9.252;2023-07-02T12:47:24;28.20;99.90
47626;DHT22;33342;45.574;9.252;2023-07-02T12:49:51;28.10;99.90
47626;DHT22;33342;45.574;9.252;2023-07-02T12:52:18;28.10;99.90
47626;DHT22;33342;45.574;9.252;2023-07-02T12:54:45;28.20;99.90
47626;DHT22;33342;45.574;9.252;2023-07-02T12:57:12;28.30;99.90
47626;DHT22;33342;45.574;9.252;2023-07-02T12:59:39;28.30;99.90
47626;DHT22;33342;45.574;9.252;2023-07-02T13:02:06;28.30;99.90
47626;DHT22;33342;45.574;9.252;2023-07-02T13:04:33;28.30;99.90
47626;DHT22;33342;45.574;9.252;2023-07-02T13:07:01;28.40;99.90
47626;DHT22;33342;45.574;9.252;2023-07-02T13:09:28;28.40;99.90
47626;DHT22;33342;45.574;9.252;2023-07-02T13:11:55;28.40;99.90
47626;DHT22;33342;45.574;9.252;2023-07-02T13:14:22;28.40;99.90
47626;DHT22;33342;45.574;9.252;2023-07-02T13:16:49;28.40;99.90
47626;DHT22;33342;45.574;9.252;2023-07-02T13:19:16;28.40;99.90
47626;DHT22;33342;45.574;9.252;2023-07-02T13:21:44;28.40;99.90
47626;DHT22;33342;45.574;9.252;2023-07-02T13:24:11;28.50;99.90
47626;DHT22;33342;45.574;9.252;2023-07-02T13:26:39;28.50;99.90
47626;DHT22;33342;45.574;9.252;2023-07-02T13:29:06;28.50;99.90
47626;DHT22;33342;45.574;9.252;2023-07-02T13:31:33;28.60;99.90
47626;DHT22;33342;45.574;9.252;2023-07-02T13:34:01;28.60;99.90
47626;DHT22;33342;45.574;9.252;2023-07-02T13:36:28;28.70;99.90
47626;DHT22;33342;45.574;9.252;2023-07-02T13:38:55;28.80;99.90
47626;DHT22;33342;45.574;9.252;2023-07-02T13:41:22;28.80;99.90
47626;DHT22;33342;45.574;9.252;2023-07-02T13:43:49;28.90;99.90
47626;DHT22;33342;45.574;9.252;2023-07-02T13:46:16;28.90;99.90
47626;DHT22;33342;45.574;9.252;2023-07-02T13:48:44;28.90;99.90
47626;DHT22;33342;45.574;9.252;2023-07-02T13:51:11;29.00;99.90
47626;DHT22;33342;45.574;9.252;2023-07-02T13:53:38;29.10;99.90
47626;DHT22;33342;45.574;9.252;2023-07-02T13:56:05;29.30;99.90
47626;DHT22;33342;45.574;9.252;2023-07-02T14:01:23;29.30;99.90
47626;DHT22;33342;45.574;9.252;2023-07-02T14:03:50;29.40;99.90
47626;DHT22;33342;45.574;9.252;2023-07-02T14:06:18;29.40;99.90
47626;DHT22;33342;45.574;9.252;2023-07-02T14:08:45;29.40;99.90
47626;DHT22;33342;45.574;9.252;2023-07-02T14:11:15;29.50;99.90
47626;DHT22;33342;45.574;9.252;2023-07-02T14:13:42;29.60;99.90
47626;DHT22;33342;45.574;9.252;2023-07-02T14:16:09;29.60;99.90
47626;DHT22;33342;45.574;9.252;2023-07-02T14:18:36;29.70;99.90
47626;DHT22;33342;45.574;9.252;2023-07-02T14:21:03;29.80;99.90
47626;DHT22;33342;45.574;9.252;2023-07-02T14:23:31;29.80;99.90
47626;DHT22;33342;45.574;9.252;2023-07-02T14:25:58;29.90;99.90
47626;DHT22;33342;45.574;9.252;2023-07-02T14:28:25;30.00;99.90
47626;DHT22;33342;45.574;9.252;2023-07-02T14:30:59;30.00;99.90
47626;DHT22;33342;45.574;9.252;2023-07-02T14:33:29;30.20;99.90
47626;DHT22;33342;45.574;9.252;2023-07-02T14:35:57;30.30;99.90
47626;DHT22;33342;45.574;9.252;2023-07-02T14:38:24;30.50;99.90
47626;DHT22;33342;45.574;9.252;2023-07-02T14:40:53;30.60;99.90
47626;DHT22;33342;45.574;9.252;2023-07-02T14:43:26;30.90;99.90
47626;DHT22;33342;45.574;9.252;2023-07-02T14:45:55;31.10;99.90
47626;DHT22;33342;45.574;9.252;2023-07-02T14:48:22;31.10;99.90
47626;DHT22;33342;45.574;9.252;2023-07-02T14:50:54;31.30;99.90
47626;DHT22;33342;45.574;9.252;2023-07-02T14:53:23;31.40;99.90
47626;DHT22;33342;45.574;9.252;2023-07-02T14:55:51;31.50;99.90
47626;DHT22;33342;45.574;9.252;2023-07-02T14:58:20;31.60;99.90
47626;DHT22;33342;45.574;9.252;2023-07-02T15:00:51;31.60;99.90
47626;DHT22;33342;45.574;9.252;2023-07-02T15:03:20;31.70;99.90
47626;DHT22;33342;45.574;9.252;2023-07-02T15:05:50;31.80;99.90
47626;DHT22;33342;45.574;9.252;2023-07-02T15:08:19;32.00;99.90
47626;DHT22;33342;45.574;9.252;2023-07-02T15:10:50;32.20;99.90
47626;DHT22;33342;45.574;9.252;2023-07-02T15:13:18;32.40;99.90
47626;DHT22;33342;45.574;9.252;2023-07-02T15:15:49;32.60;99.90
47626;DHT22;33342;45.574;9.252;2023-07-02T15:18:17;32.80;99.90
47626;DHT22;33342;45.574;9.252;2023-07-02T15:20:49;32.90;99.90
47626;DHT22;33342;45.574;9.252;2023-07-02T15:23:16;32.90;99.90
47626;DHT22;33342;45.574;9.252;2023-07-02T15:25:43;33.10;99.90
47626;DHT22;33342;45.574;9.252;2023-07-02T15:28:18;33.30;99.90
47626;DHT22;33342;45.574;9.252;2023-07-02T15:30:51;33.60;99.90
47626;DHT22;33342;45.574;9.252;2023-07-02T15:33:19;33.80;99.90
47626;DHT22;33342;45.574;9.252;2023-07-02T15:35:46;34.20;99.90
47626;DHT22;33342;45.574;9.252;2023-07-02T15:38:13;34.50;99.90
47626;DHT22;33342;45.574;9.252;2023-07-02T15:40:41;34.70;99.90
47626;DHT22;33342;45.574;9.252;2023-07-02T15:43:08;35.10;99.90
47626;DHT22;33342;45.574;9.252;2023-07-02T15:45:37;35.40;99.90
47626;DHT22;33342;45.574;9.252;2023-07-02T15:48:05;35.70;99.90